sensor_id;sensor_type;location;lat;lon;timestamp;P1;durP1;ratioP1;P2;durP2;ratioP2
53519;SDS011;39397;53.204;5.778;2024-03-29T00:01:42;4.03;;;0.90;;
53519;SDS011;39397;53.204;5.778;2024-03-29T00:04:08;5.70;;;1.00;;
53519;SDS011;39397;53.204;5.778;2024-03-29T00:06:34;5.07;;;1.00;;
53519;SDS011;39397;53.204;5.778;2024-03-29T00:09:00;5.97;;;1.33;;
53519;SDS011;39397;53.204;5.778;2024-03-29T00:11:26;5.50;;;1.75;;
53519;SDS011;39397;53.204;5.778;2024-03-29T00:13:52;5.95;;;1.08;;
53519;SDS011;39397;53.204;5.778;2024-03-29T00:16:18;4.28;;;0.90;;
53519;SDS011;39397;53.204;5.778;2024-03-29T00:18:44;2.83;;;0.77;;
53519;SDS011;39397;53.204;5.778;2024-03-29T00:21:09;7.07;;;0.95;;
53519;SDS011;39397;53.204;5.778;2024-03-29T00:23:35;6.93;;;0.98;;
53519;SDS011;39397;53.204;5.778;2024-03-29T00:26:01;8.27;;;2.33;;
53519;SDS011;39397;53.204;5.778;2024-03-29T00:28:26;7.97;;;1.27;;
53519;SDS011;39397;53.204;5.778;2024-03-29T00:30:52;4.32;;;1.05;;
53519;SDS011;39397;53.204;5.778;2024-03-29T00:33:18;5.03;;;1.05;;
53519;SDS011;39397;53.204;5.778;2024-03-29T00:35:43;15.30;;;2.47;;
53519;SDS011;39397;53.204;5.778;2024-03-29T00:38:09;6.15;;;1.10;;
53519;SDS011;39397;53.204;5.778;2024-03-29T00:40:35;6.32;;;1.10;;
53519;SDS011;39397;53.204;5.778;2024-03-29T00:43:04;6.10;;;1.45;;
53519;SDS011;39397;53.204;5.778;2024-03-29T00:45:30;5.78;;;1.30;;
53519;SDS011;39397;53.204;5.778;2024-03-29T00:47:58;5.38;;;1.30;;
53519;SDS011;39397;53.204;5.778;2024-03-29T00:50:24;4.50;;;1.00;;
53519;SDS011;39397;53.204;5.778;2024-03-29T00:52:50;4.07;;;1.17;;
53519;SDS011;39397;53.204;5.778;2024-03-29T00:55:16;5.75;;;1.40;;
53519;SDS011;39397;53.204;5.778;2024-03-29T00:57:42;4.68;;;0.98;;
53519;SDS011;39397;53.204;5.778;2024-03-29T01:00:08;4.45;;;1.10;;
53519;SDS011;39397;53.204;5.778;2024-03-29T01:02:35;6.38;;;1.02;;
53519;SDS011;39397;53.204;5.778;2024-03-29T01:05:01;7.63;;;1.20;;
53519;SDS011;39397;53.204;5.778;2024-03-29T01:07:26;5.45;;;1.15;;
53519;SDS011;39397;53.204;5.778;2024-03-29T01:09:52;12.43;;;1.52;;
53519;SDS011;39397;53.204;5.778;2024-03-29T01:12:18;5.72;;;1.63;;
53519;SDS011;39397;53.204;5.778;2024-03-29T01:14:45;4.75;;;1.58;;
53519;SDS011;39397;53.204;5.778;2024-03-29T01:17:11;7.82;;;1.10;;
53519;SDS011;39397;53.204;5.778;2024-03-29T01:19:37;6.15;;;1.10;;
53519;SDS011;39397;53.204;5.778;2024-03-29T01:22:03;6.00;;;1.30;;
53519;SDS011;39397;53.204;5.778;2024-03-29T01:24:29;6.47;;;1.20;;
53519;SDS011;39397;53.204;5.778;2024-03-29T01:26:55;7.25;;;1.73;;
53519;SDS011;39397;53.204;5.778;2024-03-29T01:29:22;7.60;;;1.10;;
53519;SDS011;39397;53.204;5.778;2024-03-29T01:31:47;7.10;;;1.73;;
53519;SDS011;39397;53.204;5.778;2024-03-29T01:34:13;10.80;;;1.50;;
53519;SDS011;39397;53.204;5.778;2024-03-29T01:36:39;4.82;;;1.23;;
53519;SDS011;39397;53.204;5.778;2024-03-29T01:39:04;7.40;;;1.80;;
53519;SDS011;39397;53.204;5.778;2024-03-29T01:41:32;5.65;;;1.08;;
53519;SDS011;39397;53.204;5.778;2024-03-29T01:43:58;6.65;;;1.30;;
53519;SDS011;39397;53.204;5.778;2024-03-29T01:46:24;5.35;;;1.13;;
53519;SDS011;39397;53.204;5.778;2024-03-29T01:48:50;6.65;;;1.40;;
53519;SDS011;39397;53.204;5.778;2024-03-29T01:51:17;5.03;;;1.33;;
53519;SDS011;39397;53.204;5.778;2024-03-29T01:53:44;5.50;;;1.40;;
53519;SDS011;39397;53.204;5.778;2024-03-29T01:56:12;6.47;;;1.27;;
53519;SDS011;39397;53.204;5.778;2024-03-29T01:58:41;9.25;;;1.55;;
53519;SDS011;39397;53.204;5.778;2024-03-29T02:01:07;5.85;;;1.48;;
53519;SDS011;39397;53.204;5.778;2024-03-29T02:03:33;5.35;;;1.50;;
53519;SDS011;39397;53.204;5.778;2024-03-29T02:05:59;8.85;;;1.48;;
53519;SDS011;39397;53.204;5.778;2024-03-29T02:08:27;7.93;;;1.35;;
53519;SDS011;39397;53.204;5.778;2024-03-29T02:10:53;3.47;;;0.93;;
53519;SDS011;39397;53.204;5.778;2024-03-29T02:13:19;5.32;;;1.13;;
53519;SDS011;39397;53.204;5.778;2024-03-29T02:15:45;6.43;;;1.30;;
53519;SDS011;39397;53.204;5.778;2024-03-29T02:18:11;6.85;;;1.27;;
53519;SDS011;39397;53.204;5.778;2024-03-29T02:20:36;5.07;;;1.10;;
53519;SDS011;39397;53.204;5.778;2024-03-29T02:23:06;5.22;;;1.30;;
53519;SDS011;39397;53.204;5.778;2024-03-29T02:25:34;9.43;;;2.72;;
53519;SDS011;39397;53.204;5.778;2024-03-29T02:28:01;6.57;;;1.42;;
53519;SDS011;39397;53.204;5.778;2024-03-29T02:30:28;5.25;;;1.42;;
53519;SDS011;39397;53.204;5.778;2024-03-29T02:32:55;5.68;;;1.65;;
53519;SDS011;39397;53.204;5.778;2024-03-29T02:35:21;4.82;;;1.00;;
53519;SDS011;39397;53.204;5.778;2024-03-29T02:37:47;3.75;;;1.10;;
53519;SDS011;39397;53.204;5.778;2024-03-29T02:40:13;6.47;;;1.48;;
53519;SDS011;39397;53.204;5.778;2024-03-29T02:42:38;5.88;;;1.42;;
53519;SDS011;39397;53.204;5.778;2024-03-29T02:45:04;4.40;;;1.33;;
53519;SDS011;39397;53.204;5.778;2024-03-29T02:47:30;5.78;;;1.50;;
53519;SDS011;39397;53.204;5.778;2024-03-29T02:49:56;5.38;;;1.60;;
53519;SDS011;39397;53.204;5.778;2024-03-29T02:52:21;5.97;;;1.20;;
53519;SDS011;39397;53.204;5.778;2024-03-29T02:54:47;6.25;;;1.35;;
53519;SDS011;39397;53.204;5.778;2024-03-29T02:57:13;7.65;;;1.33;;
53519;SDS011;39397;53.204;5.778;2024-03-29T02:59:39;7.18;;;1.20;;
53519;SDS011;39397;53.204;5.778;2024-03-29T03:02:05;3.88;;;0.98;;
53519;SDS011;39397;53.204;5.778;2024-03-29T03:04:31;9.25;;;1.40;;
53519;SDS011;39397;53.204;5.778;2024-03-29T03:06:57;8.20;;;1.40;;
53519;SDS011;39397;53.204;5.778;2024-03-29T03:09:42;7.53;;;1.10;;
53519;SDS011;39397;53.204;5.778;2024-03-29T03:12:26;7.60;;;2.85;;
53519;SDS011;39397;53.204;5.778;2024-03-29T03:14:54;5.35;;;1.05;;
53519;SDS011;39397;53.204;5.778;2024-03-29T03:17:20;6.47;;;1.25;;
53519;SDS011;39397;53.204;5.778;2024-03-29T03:19:46;6.10;;;1.20;;
53519;SDS011;39397;53.204;5.778;2024-03-29T03:22:12;4.05;;;0.98;;
53519;SDS011;39397;53.204;5.778;2024-03-29T03:24:37;5.75;;;1.58;;
53519;SDS011;39397;53.204;5.778;2024-03-29T03:27:03;7.55;;;1.20;;
53519;SDS011;39397;53.204;5.778;2024-03-29T03:29:29;5.35;;;1.13;;
53519;SDS011;39397;53.204;5.778;2024-03-29T03:31:55;3.63;;;0.93;;
53519;SDS011;39397;53.204;5.778;2024-03-29T03:34:20;8.18;;;1.27;;
53519;SDS011;39397;53.204;5.778;2024-03-29T03:36:46;3.38;;;0.98;;
53519;SDS011;39397;53.204;5.778;2024-03-29T03:39:12;5.38;;;1.30;;
53519;SDS011;39397;53.204;5.778;2024-03-29T03:41:37;7.97;;;1.50;;
53519;SDS011;39397;53.204;5.778;2024-03-29T03:44:03;6.80;;;2.10;;
53519;SDS011;39397;53.204;5.778;2024-03-29T03:46:29;4.82;;;1.13;;
53519;SDS011;39397;53.204;5.778;2024-03-29T03:48:54;5.80;;;1.13;;
53519;SDS011;39397;53.204;5.778;2024-03-29T03:51:20;4.57;;;1.15;;
53519;SDS011;39397;53.204;5.778;2024-03-29T03:53:46;8.98;;;1.75;;
53519;SDS011;39397;53.204;5.778;2024-03-29T03:56:11;8.45;;;1.30;;
53519;SDS011;39397;53.204;5.778;2024-03-29T03:58:37;3.47;;;1.40;;
53519;SDS011;39397;53.204;5.778;2024-03-29T04:01:04;7.65;;;1.00;;
53519;SDS011;39397;53.204;5.778;2024-03-29T04:03:30;8.00;;;1.33;;
53519;SDS011;39397;53.204;5.778;2024-03-29T04:05:56;6.20;;;1.05;;
53519;SDS011;39397;53.204;5.778;2024-03-29T04:08:22;5.55;;;0.93;;
53519;SDS011;39397;53.204;5.778;2024-03-29T04:10:48;6.43;;;1.10;;
53519;SDS011;39397;53.204;5.778;2024-03-29T04:13:13;3.90;;;1.13;;
53519;SDS011;39397;53.204;5.778;2024-03-29T04:15:39;4.40;;;1.35;;
53519;SDS011;39397;53.204;5.778;2024-03-29T04:18:05;8.30;;;1.10;;
53519;SDS011;39397;53.204;5.778;2024-03-29T04:20:31;6.47;;;1.67;;
53519;SDS011;39397;53.204;5.778;2024-03-29T04:22:57;6.38;;;1.67;;
53519;SDS011;39397;53.204;5.778;2024-03-29T04:25:23;5.20;;;0.80;;
53519;SDS011;39397;53.204;5.778;2024-03-29T04:27:48;4.50;;;1.10;;
53519;SDS011;39397;53.204;5.778;2024-03-29T04:30:14;7.45;;;1.77;;
53519;SDS011;39397;53.204;5.778;2024-03-29T04:32:40;3.47;;;0.90;;
53519;SDS011;39397;53.204;5.778;2024-03-29T04:35:05;8.32;;;1.23;;
53519;SDS011;39397;53.204;5.778;2024-03-29T04:37:31;4.65;;;1.38;;
53519;SDS011;39397;53.204;5.778;2024-03-29T04:39:57;5.47;;;1.15;;
53519;SDS011;39397;53.204;5.778;2024-03-29T04:42:23;4.70;;;0.95;;
53519;SDS011;39397;53.204;5.778;2024-03-29T04:44:48;5.05;;;1.08;;
53519;SDS011;39397;53.204;5.778;2024-03-29T04:47:14;10.18;;;1.55;;
53519;SDS011;39397;53.204;5.778;2024-03-29T04:49:40;3.28;;;1.27;;
53519;SDS011;39397;53.204;5.778;2024-03-29T04:52:06;4.32;;;1.05;;
53519;SDS011;39397;53.204;5.778;2024-03-29T04:54:32;4.93;;;0.90;;
53519;SDS011;39397;53.204;5.778;2024-03-29T04:57:01;3.58;;;1.15;;
53519;SDS011;39397;53.204;5.778;2024-03-29T04:59:28;5.97;;;1.15;;
53519;SDS011;39397;53.204;5.778;2024-03-29T05:01:54;3.42;;;0.82;;
53519;SDS011;39397;53.204;5.778;2024-03-29T05:04:22;5.32;;;1.08;;
53519;SDS011;39397;53.204;5.778;2024-03-29T05:06:53;8.35;;;1.20;;
53519;SDS011;39397;53.204;5.778;2024-03-29T05:09:23;8.10;;;1.40;;
53519;SDS011;39397;53.204;5.778;2024-03-29T05:11:50;5.40;;;1.00;;
53519;SDS011;39397;53.204;5.778;2024-03-29T05:14:16;2.53;;;0.82;;
53519;SDS011;39397;53.204;5.778;2024-03-29T05:16:46;5.05;;;1.00;;
53519;SDS011;39397;53.204;5.778;2024-03-29T05:19:13;7.75;;;1.10;;
53519;SDS011;39397;53.204;5.778;2024-03-29T05:21:39;3.88;;;0.95;;
53519;SDS011;39397;53.204;5.778;2024-03-29T05:24:05;3.75;;;0.90;;
53519;SDS011;39397;53.204;5.778;2024-03-29T05:26:32;7.03;;;1.20;;
53519;SDS011;39397;53.204;5.778;2024-03-29T05:28:58;7.80;;;1.00;;
53519;SDS011;39397;53.204;5.778;2024-03-29T05:31:24;5.35;;;0.93;;
53519;SDS011;39397;53.204;5.778;2024-03-29T05:33:51;8.45;;;1.05;;
53519;SDS011;39397;53.204;5.778;2024-03-29T05:36:16;5.00;;;1.27;;
53519;SDS011;39397;53.204;5.778;2024-03-29T05:38:44;3.78;;;1.02;;
53519;SDS011;39397;53.204;5.778;2024-03-29T05:41:11;4.00;;;0.98;;
53519;SDS011;39397;53.204;5.778;2024-03-29T05:43:38;6.45;;;1.35;;
53519;SDS011;39397;53.204;5.778;2024-03-29T05:46:05;4.57;;;1.20;;
53519;SDS011;39397;53.204;5.778;2024-03-29T05:48:31;5.75;;;1.23;;
53519;SDS011;39397;53.204;5.778;2024-03-29T05:50:56;3.63;;;0.73;;
53519;SDS011;39397;53.204;5.778;2024-03-29T05:53:22;4.75;;;1.10;;
53519;SDS011;39397;53.204;5.778;2024-03-29T05:55:48;9.38;;;1.20;;
53519;SDS011;39397;53.204;5.778;2024-03-29T05:58:13;3.97;;;0.70;;
53519;SDS011;39397;53.204;5.778;2024-03-29T06:00:43;6.68;;;0.80;;
53519;SDS011;39397;53.204;5.778;2024-03-29T06:03:08;5.93;;;1.10;;
53519;SDS011;39397;53.204;5.778;2024-03-29T06:05:34;5.30;;;1.08;;
53519;SDS011;39397;53.204;5.778;2024-03-29T06:08:00;3.10;;;0.85;;
53519;SDS011;39397;53.204;5.778;2024-03-29T06:10:26;4.70;;;1.25;;
53519;SDS011;39397;53.204;5.778;2024-03-29T06:12:51;4.70;;;1.33;;
53519;SDS011;39397;53.204;5.778;2024-03-29T06:15:17;3.88;;;0.90;;
53519;SDS011;39397;53.204;5.778;2024-03-29T06:20:27;5.10;;;1.50;;
53519;SDS011;39397;53.204;5.778;2024-03-29T06:22:53;7.45;;;1.98;;
53519;SDS011;39397;53.204;5.778;2024-03-29T06:25:19;7.05;;;1.08;;
53519;SDS011;39397;53.204;5.778;2024-03-29T06:27:44;3.17;;;0.73;;
53519;SDS011;39397;53.204;5.778;2024-03-29T06:30:13;3.63;;;0.70;;
53519;SDS011;39397;53.204;5.778;2024-03-29T06:32:40;3.53;;;0.82;;
53519;SDS011;39397;53.204;5.778;2024-03-29T06:35:06;4.63;;;0.80;;
53519;SDS011;39397;53.204;5.778;2024-03-29T06:37:32;3.53;;;0.80;;
53519;SDS011;39397;53.204;5.778;2024-03-29T06:39:58;3.10;;;0.73;;
53519;SDS011;39397;53.204;5.778;2024-03-29T06:42:26;2.53;;;0.80;;
53519;SDS011;39397;53.204;5.778;2024-03-29T06:44:52;3.63;;;1.30;;
53519;SDS011;39397;53.204;5.778;2024-03-29T06:47:19;2.75;;;0.80;;
53519;SDS011;39397;53.204;5.778;2024-03-29T06:49:45;3.10;;;0.88;;
53519;SDS011;39397;53.204;5.778;2024-03-29T06:52:11;3.60;;;1.20;;
53519;SDS011;39397;53.204;5.778;2024-03-29T06:54:37;4.20;;;0.80;;
53519;SDS011;39397;53.204;5.778;2024-03-29T06:57:03;3.05;;;0.82;;
53519;SDS011;39397;53.204;5.778;2024-03-29T06:59:29;3.22;;;0.90;;
53519;SDS011;39397;53.204;5.778;2024-03-29T07:01:55;2.80;;;0.80;;
53519;SDS011;39397;53.204;5.778;2024-03-29T07:04:24;3.65;;;0.90;;
53519;SDS011;39397;53.204;5.778;2024-03-29T07:06:50;2.75;;;0.80;;
53519;SDS011;39397;53.204;5.778;2024-03-29T07:09:20;2.50;;;0.80;;
53519;SDS011;39397;53.204;5.778;2024-03-29T07:11:47;2.40;;;0.80;;
53519;SDS011;39397;53.204;5.778;2024-03-29T07:14:15;6.10;;;1.17;;
53519;SDS011;39397;53.204;5.778;2024-03-29T07:16:42;3.33;;;0.93;;
53519;SDS011;39397;53.204;5.778;2024-03-29T07:19:08;2.00;;;0.70;;
53519;SDS011;39397;53.204;5.778;2024-03-29T07:21:37;3.17;;;0.70;;
53519;SDS011;39397;53.204;5.778;2024-03-29T07:24:04;1.58;;;0.55;;
53519;SDS011;39397;53.204;5.778;2024-03-29T07:26:30;3.28;;;0.68;;
53519;SDS011;39397;53.204;5.778;2024-03-29T07:28:55;2.33;;;0.50;;
53519;SDS011;39397;53.204;5.778;2024-03-29T07:31:21;2.78;;;0.80;;
53519;SDS011;39397;53.204;5.778;2024-03-29T07:33:47;3.13;;;0.70;;
53519;SDS011;39397;53.204;5.778;2024-03-29T07:36:12;3.80;;;1.10;;
53519;SDS011;39397;53.204;5.778;2024-03-29T07:38:38;2.97;;;0.70;;
53519;SDS011;39397;53.204;5.778;2024-03-29T07:41:04;1.65;;;0.45;;
53519;SDS011;39397;53.204;5.778;2024-03-29T07:43:41;2.45;;;0.60;;
53519;SDS011;39397;53.204;5.778;2024-03-29T07:46:17;1.70;;;0.50;;
53519;SDS011;39397;53.204;5.778;2024-03-29T07:48:43;2.08;;;0.40;;
53519;SDS011;39397;53.204;5.778;2024-03-29T07:51:08;2.03;;;0.63;;
53519;SDS011;39397;53.204;5.778;2024-03-29T07:53:34;2.05;;;0.70;;
53519;SDS011;39397;53.204;5.778;2024-03-29T07:56:00;2.72;;;0.70;;
53519;SDS011;39397;53.204;5.778;2024-03-29T07:58:26;2.63;;;0.50;;
53519;SDS011;39397;53.204;5.778;2024-03-29T08:00:52;1.38;;;0.45;;
53519;SDS011;39397;53.204;5.778;2024-03-29T08:03:18;2.13;;;0.60;;
53519;SDS011;39397;53.204;5.778;2024-03-29T08:05:55;2.08;;;0.63;;
53519;SDS011;39397;53.204;5.778;2024-03-29T08:08:29;2.25;;;0.60;;
53519;SDS011;39397;53.204;5.778;2024-03-29T08:10:56;3.33;;;0.32;;
53519;SDS011;39397;53.204;5.778;2024-03-29T08:13:21;2.83;;;0.70;;
53519;SDS011;39397;53.204;5.778;2024-03-29T08:15:50;5.35;;;0.70;;
53519;SDS011;39397;53.204;5.778;2024-03-29T08:18:25;2.17;;;0.50;;
53519;SDS011;39397;53.204;5.778;2024-03-29T08:20:51;1.92;;;0.50;;
53519;SDS011;39397;53.204;5.778;2024-03-29T08:23:17;4.53;;;1.13;;
53519;SDS011;39397;53.204;5.778;2024-03-29T08:25:43;2.60;;;0.70;;
53519;SDS011;39397;53.204;5.778;2024-03-29T08:28:09;2.17;;;0.55;;
53519;SDS011;39397;53.204;5.778;2024-03-29T08:30:36;1.40;;;0.45;;
53519;SDS011;39397;53.204;5.778;2024-03-29T08:33:02;2.78;;;0.55;;
53519;SDS011;39397;53.204;5.778;2024-03-29T08:35:28;3.28;;;0.60;;
53519;SDS011;39397;53.204;5.778;2024-03-29T08:37:58;1.20;;;0.38;;
53519;SDS011;39397;53.204;5.778;2024-03-29T08:40:26;3.92;;;0.50;;
53519;SDS011;39397;53.204;5.778;2024-03-29T08:42:59;2.78;;;0.60;;
53519;SDS011;39397;53.204;5.778;2024-03-29T08:45:25;1.67;;;0.40;;
53519;SDS011;39397;53.204;5.778;2024-03-29T08:47:50;2.47;;;0.60;;
53519;SDS011;39397;53.204;5.778;2024-03-29T08:50:16;1.90;;;0.45;;
53519;SDS011;39397;53.204;5.778;2024-03-29T08:52:42;1.10;;;0.60;;
53519;SDS011;39397;53.204;5.778;2024-03-29T08:55:12;2.03;;;0.60;;
53519;SDS011;39397;53.204;5.778;2024-03-29T08:57:38;2.08;;;0.40;;
53519;SDS011;39397;53.204;5.778;2024-03-29T09:00:04;3.08;;;0.50;;
53519;SDS011;39397;53.204;5.778;2024-03-29T09:02:30;1.42;;;0.50;;
53519;SDS011;39397;53.204;5.778;2024-03-29T09:04:56;2.33;;;0.43;;
53519;SDS011;39397;53.204;5.778;2024-03-29T09:07:23;1.98;;;0.40;;
53519;SDS011;39397;53.204;5.778;2024-03-29T09:09:49;0.75;;;0.40;;
53519;SDS011;39397;53.204;5.778;2024-03-29T09:12:15;1.05;;;0.50;;
53519;SDS011;39397;53.204;5.778;2024-03-29T09:14:43;1.95;;;0.60;;
53519;SDS011;39397;53.204;5.778;2024-03-29T09:17:13;1.35;;;0.60;;
53519;SDS011;39397;53.204;5.778;2024-03-29T09:19:39;2.63;;;0.60;;
53519;SDS011;39397;53.204;5.778;2024-03-29T09:22:04;1.88;;;0.55;;
53519;SDS011;39397;53.204;5.778;2024-03-29T09:24:30;2.33;;;0.50;;
53519;SDS011;39397;53.204;5.778;2024-03-29T09:26:57;1.10;;;0.40;;
53519;SDS011;39397;53.204;5.778;2024-03-29T09:29:22;2.00;;;0.60;;
53519;SDS011;39397;53.204;5.778;2024-03-29T09:31:48;2.33;;;0.63;;
53519;SDS011;39397;53.204;5.778;2024-03-29T09:34:14;1.00;;;0.43;;
53519;SDS011;39397;53.204;5.778;2024-03-29T09:36:40;2.05;;;0.50;;
53519;SDS011;39397;53.204;5.778;2024-03-29T09:39:06;1.35;;;0.50;;
53519;SDS011;39397;53.204;5.778;2024-03-29T09:41:33;2.53;;;0.60;;
53519;SDS011;39397;53.204;5.778;2024-03-29T09:44:02;2.38;;;0.93;;
53519;SDS011;39397;53.204;5.778;2024-03-29T09:46:31;2.17;;;0.88;;
53519;SDS011;39397;53.204;5.778;2024-03-29T09:48:58;3.78;;;0.50;;
53519;SDS011;39397;53.204;5.778;2024-03-29T09:51:25;3.33;;;1.08;;
53519;SDS011;39397;53.204;5.778;2024-03-29T09:53:52;3.33;;;0.80;;
53519;SDS011;39397;53.204;5.778;2024-03-29T09:56:20;1.20;;;0.30;;
53519;SDS011;39397;53.204;5.778;2024-03-29T09:58:47;2.53;;;0.68;;
53519;SDS011;39397;53.204;5.778;2024-03-29T10:01:13;1.90;;;0.57;;
53519;SDS011;39397;53.204;5.778;2024-03-29T10:03:39;0.77;;;0.50;;
53519;SDS011;39397;53.204;5.778;2024-03-29T10:06:07;1.45;;;0.47;;
53519;SDS011;39397;53.204;5.778;2024-03-29T10:08:38;1.77;;;0.63;;
53519;SDS011;39397;53.204;5.778;2024-03-29T10:11:03;1.80;;;0.60;;
53519;SDS011;39397;53.204;5.778;2024-03-29T10:13:29;2.15;;;0.57;;
53519;SDS011;39397;53.204;5.778;2024-03-29T10:15:55;1.10;;;0.47;;
53519;SDS011;39397;53.204;5.778;2024-03-29T10:18:22;1.92;;;0.40;;
53519;SDS011;39397;53.204;5.778;2024-03-29T10:21:01;0.93;;;0.45;;
53519;SDS011;39397;53.204;5.778;2024-03-29T10:23:28;1.88;;;0.50;;
53519;SDS011;39397;53.204;5.778;2024-03-29T10:25:55;1.77;;;0.57;;
53519;SDS011;39397;53.204;5.778;2024-03-29T10:28:21;2.05;;;0.50;;
53519;SDS011;39397;53.204;5.778;2024-03-29T10:30:47;1.23;;;0.30;;
53519;SDS011;39397;53.204;5.778;2024-03-29T10:33:14;1.40;;;0.47;;
53519;SDS011;39397;53.204;5.778;2024-03-29T10:35:41;0.82;;;0.30;;
53519;SDS011;39397;53.204;5.778;2024-03-29T10:38:09;1.05;;;0.40;;
53519;SDS011;39397;53.204;5.778;2024-03-29T10:40:37;1.35;;;0.50;;
53519;SDS011;39397;53.204;5.778;2024-03-29T10:43:06;1.48;;;0.30;;
53519;SDS011;39397;53.204;5.778;2024-03-29T10:45:41;1.27;;;0.50;;
53519;SDS011;39397;53.204;5.778;2024-03-29T10:48:08;4.28;;;0.57;;
53519;SDS011;39397;53.204;5.778;2024-03-29T10:50:35;1.90;;;0.52;;
53519;SDS011;39397;53.204;5.778;2024-03-29T10:53:02;2.83;;;0.45;;
53519;SDS011;39397;53.204;5.778;2024-03-29T10:55:34;2.08;;;0.50;;
53519;SDS011;39397;53.204;5.778;2024-03-29T10:58:02;1.60;;;0.47;;
53519;SDS011;39397;53.204;5.778;2024-03-29T11:00:46;2.72;;;0.60;;
53519;SDS011;39397;53.204;5.778;2024-03-29T11:03:20;1.63;;;0.50;;
53519;SDS011;39397;53.204;5.778;2024-03-29T11:06:01;1.15;;;0.50;;
53519;SDS011;39397;53.204;5.778;2024-03-29T11:08:30;2.58;;;0.40;;
53519;SDS011;39397;53.204;5.778;2024-03-29T11:10:59;3.03;;;0.65;;
53519;SDS011;39397;53.204;5.778;2024-03-29T11:16:17;2.50;;;0.93;;
53519;SDS011;39397;53.204;5.778;2024-03-29T11:18:44;3.40;;;0.75;;
53519;SDS011;39397;53.204;5.778;2024-03-29T11:21:12;2.47;;;0.65;;
53519;SDS011;39397;53.204;5.778;2024-03-29T11:23:52;2.08;;;0.55;;
53519;SDS011;39397;53.204;5.778;2024-03-29T11:26:19;1.60;;;0.40;;
53519;SDS011;39397;53.204;5.778;2024-03-29T11:28:49;1.85;;;0.52;;
53519;SDS011;39397;53.204;5.778;2024-03-29T11:31:16;2.58;;;0.80;;
53519;SDS011;39397;53.204;5.778;2024-03-29T11:38:41;1.38;;;0.52;;
53519;SDS011;39397;53.204;5.778;2024-03-29T11:41:11;1.55;;;0.50;;
53519;SDS011;39397;53.204;5.778;2024-03-29T11:43:45;3.60;;;0.50;;
53519;SDS011;39397;53.204;5.778;2024-03-29T11:46:12;2.88;;;0.82;;
53519;SDS011;39397;53.204;5.778;2024-03-29T11:48:39;2.25;;;0.50;;
53519;SDS011;39397;53.204;5.778;2024-03-29T11:51:06;1.48;;;0.50;;
53519;SDS011;39397;53.204;5.778;2024-03-29T11:53:37;0.88;;;0.40;;
53519;SDS011;39397;53.204;5.778;2024-03-29T11:56:03;1.25;;;0.45;;
53519;SDS011;39397;53.204;5.778;2024-03-29T11:58:30;1.75;;;0.57;;
53519;SDS011;39397;53.204;5.778;2024-03-29T12:00:57;2.45;;;0.50;;
53519;SDS011;39397;53.204;5.778;2024-03-29T12:03:27;2.60;;;0.57;;
53519;SDS011;39397;53.204;5.778;2024-03-29T12:05:56;3.58;;;0.60;;
53519;SDS011;39397;53.204;5.778;2024-03-29T12:08:29;2.45;;;0.60;;
53519;SDS011;39397;53.204;5.778;2024-03-29T12:11:00;1.05;;;0.40;;
53519;SDS011;39397;53.204;5.778;2024-03-29T12:13:26;1.65;;;0.35;;
53519;SDS011;39397;53.204;5.778;2024-03-29T12:15:53;1.30;;;0.40;;
53519;SDS011;39397;53.204;5.778;2024-03-29T12:18:20;1.98;;;0.40;;
53519;SDS011;39397;53.204;5.778;2024-03-29T12:20:47;2.55;;;0.50;;
53519;SDS011;39397;53.204;5.778;2024-03-29T12:23:18;2.05;;;0.40;;
53519;SDS011;39397;53.204;5.778;2024-03-29T12:25:46;3.13;;;0.40;;
53519;SDS011;39397;53.204;5.778;2024-03-29T12:28:13;0.77;;;0.40;;
53519;SDS011;39397;53.204;5.778;2024-03-29T12:30:42;1.42;;;0.38;;
53519;SDS011;39397;53.204;5.778;2024-03-29T12:33:19;1.60;;;0.43;;
53519;SDS011;39397;53.204;5.778;2024-03-29T12:35:49;2.78;;;0.50;;
53519;SDS011;39397;53.204;5.778;2024-03-29T12:38:18;3.13;;;0.50;;
53519;SDS011;39397;53.204;5.778;2024-03-29T12:40:46;1.38;;;0.50;;
53519;SDS011;39397;53.204;5.778;2024-03-29T12:43:19;2.08;;;0.50;;
53519;SDS011;39397;53.204;5.778;2024-03-29T12:45:45;3.35;;;0.60;;
53519;SDS011;39397;53.204;5.778;2024-03-29T12:48:12;3.40;;;0.73;;
53519;SDS011;39397;53.204;5.778;2024-03-29T12:50:42;2.88;;;0.70;;
53519;SDS011;39397;53.204;5.778;2024-03-29T12:53:09;5.43;;;0.70;;
53519;SDS011;39397;53.204;5.778;2024-03-29T12:55:37;1.90;;;0.70;;
53519;SDS011;39397;53.204;5.778;2024-03-29T12:58:10;1.38;;;0.60;;
53519;SDS011;39397;53.204;5.778;2024-03-29T13:00:38;3.00;;;0.70;;
53519;SDS011;39397;53.204;5.778;2024-03-29T13:03:04;1.45;;;0.40;;
53519;SDS011;39397;53.204;5.778;2024-03-29T13:05:31;1.63;;;0.45;;
53519;SDS011;39397;53.204;5.778;2024-03-29T13:08:01;3.83;;;0.65;;
53519;SDS011;39397;53.204;5.778;2024-03-29T13:10:29;3.72;;;0.60;;
53519;SDS011;39397;53.204;5.778;2024-03-29T13:12:54;1.30;;;0.60;;
53519;SDS011;39397;53.204;5.778;2024-03-29T13:15:21;1.80;;;0.50;;
53519;SDS011;39397;53.204;5.778;2024-03-29T13:17:52;2.03;;;0.57;;
53519;SDS011;39397;53.204;5.778;2024-03-29T13:20:19;2.42;;;0.60;;
53519;SDS011;39397;53.204;5.778;2024-03-29T13:22:45;2.03;;;0.40;;
53519;SDS011;39397;53.204;5.778;2024-03-29T13:25:12;2.38;;;0.52;;
53519;SDS011;39397;53.204;5.778;2024-03-29T13:27:40;3.25;;;0.70;;
53519;SDS011;39397;53.204;5.778;2024-03-29T13:30:07;1.80;;;0.70;;
53519;SDS011;39397;53.204;5.778;2024-03-29T13:32:39;0.82;;;0.40;;
53519;SDS011;39397;53.204;5.778;2024-03-29T13:35:06;1.77;;;0.65;;
53519;SDS011;39397;53.204;5.778;2024-03-29T13:40:03;3.25;;;0.75;;
53519;SDS011;39397;53.204;5.778;2024-03-29T13:42:30;3.20;;;1.00;;
53519;SDS011;39397;53.204;5.778;2024-03-29T13:44:56;1.38;;;0.75;;
53519;SDS011;39397;53.204;5.778;2024-03-29T13:47:23;2.60;;;1.00;;
53519;SDS011;39397;53.204;5.778;2024-03-29T13:49:49;1.83;;;0.93;;
53519;SDS011;39397;53.204;5.778;2024-03-29T13:52:19;2.03;;;1.05;;
53519;SDS011;39397;53.204;5.778;2024-03-29T13:54:46;2.25;;;1.00;;
53519;SDS011;39397;53.204;5.778;2024-03-29T13:57:13;3.38;;;1.30;;
53519;SDS011;39397;53.204;5.778;2024-03-29T13:59:39;2.17;;;1.27;;
53519;SDS011;39397;53.204;5.778;2024-03-29T14:02:08;4.03;;;1.30;;
53519;SDS011;39397;53.204;5.778;2024-03-29T14:04:37;2.90;;;1.40;;
53519;SDS011;39397;53.204;5.778;2024-03-29T14:07:03;3.17;;;1.77;;
53519;SDS011;39397;53.204;5.778;2024-03-29T14:09:32;2.00;;;1.35;;
53519;SDS011;39397;53.204;5.778;2024-03-29T14:11:59;3.20;;;1.60;;
53519;SDS011;39397;53.204;5.778;2024-03-29T14:14:25;2.15;;;1.30;;
53519;SDS011;39397;53.204;5.778;2024-03-29T14:16:50;2.03;;;1.35;;
53519;SDS011;39397;53.204;5.778;2024-03-29T14:19:16;2.75;;;1.55;;
53519;SDS011;39397;53.204;5.778;2024-03-29T14:21:43;3.28;;;1.40;;
53519;SDS011;39397;53.204;5.778;2024-03-29T14:24:08;3.22;;;1.45;;
53519;SDS011;39397;53.204;5.778;2024-03-29T14:26:34;3.00;;;1.30;;
53519;SDS011;39397;53.204;5.778;2024-03-29T14:29:00;3.10;;;1.30;;
53519;SDS011;39397;53.204;5.778;2024-03-29T14:31:25;5.25;;;1.60;;
53519;SDS011;39397;53.204;5.778;2024-03-29T14:33:54;3.03;;;1.25;;
53519;SDS011;39397;53.204;5.778;2024-03-29T14:36:20;2.70;;;1.00;;
53519;SDS011;39397;53.204;5.778;2024-03-29T14:38:45;3.17;;;1.23;;
53519;SDS011;39397;53.204;5.778;2024-03-29T14:41:12;2.45;;;1.20;;
53519;SDS011;39397;53.204;5.778;2024-03-29T14:43:38;2.72;;;1.08;;
53519;SDS011;39397;53.204;5.778;2024-03-29T14:46:04;2.90;;;1.15;;
53519;SDS011;39397;53.204;5.778;2024-03-29T14:48:30;3.20;;;1.38;;
53519;SDS011;39397;53.204;5.778;2024-03-29T14:50:55;4.65;;;1.42;;
53519;SDS011;39397;53.204;5.778;2024-03-29T14:53:23;4.65;;;1.45;;
53519;SDS011;39397;53.204;5.778;2024-03-29T14:55:48;3.17;;;1.00;;
53519;SDS011;39397;53.204;5.778;2024-03-29T14:58:14;4.03;;;1.08;;
53519;SDS011;39397;53.204;5.778;2024-03-29T15:00:40;3.10;;;1.50;;